createdAt,value
2018-12-09T00:00:42.750Z,4.07
2018-12-09T00:03:10.784Z,4.00
2018-12-09T00:05:38.889Z,3.20
2018-12-09T00:08:06.956Z,3.13
2018-12-09T00:10:35.052Z,3.40
2018-12-09T00:13:03.182Z,4.53
2018-12-09T00:15:31.283Z,4.43
2018-12-09T00:17:59.374Z,4.50
2018-12-09T00:20:27.497Z,3.50
2018-12-09T00:22:55.599Z,4.20
2018-12-09T00:25:23.670Z,4.50
2018-12-09T00:27:51.755Z,5.10
2018-12-09T00:30:19.929Z,4.23
2018-12-09T00:32:48.070Z,5.07
2018-12-09T00:35:16.178Z,4.67
2018-12-09T00:37:44.284Z,5.10
2018-12-09T00:40:12.372Z,4.60
2018-12-09T00:42:43.628Z,4.30
2018-12-09T00:45:10.571Z,3.50
2018-12-09T00:47:38.654Z,3.60
2018-12-09T00:50:06.918Z,3.53
2018-12-09T00:52:35.009Z,3.93
2018-12-09T00:55:03.654Z,3.33
2018-12-09T00:57:31.741Z,3.50
2018-12-09T00:59:59.858Z,3.10
2018-12-09T01:02:27.982Z,3.00
2018-12-09T01:04:56.083Z,3.00
2018-12-09T01:07:24.158Z,3.00
2018-12-09T01:09:52.261Z,2.80
2018-12-09T01:12:20.324Z,3.10
2018-12-09T01:14:48.403Z,1.70
2018-12-09T01:17:16.491Z,1.90
2018-12-09T01:19:44.590Z,1.30
2018-12-09T01:22:12.690Z,1.60
2018-12-09T01:24:40.799Z,2.13
2018-12-09T01:27:08.872Z,1.80
2018-12-09T01:29:36.949Z,1.80
2018-12-09T01:32:05.199Z,2.07
2018-12-09T01:34:33.354Z,2.10
2018-12-09T01:37:01.442Z,2.10
2018-12-09T01:39:29.595Z,2.90
2018-12-09T01:41:57.875Z,2.80
2018-12-09T01:44:25.942Z,3.30
2018-12-09T01:46:54.035Z,2.73
2018-12-09T01:49:22.118Z,3.50
2018-12-09T01:51:50.219Z,3.30
2018-12-09T01:54:18.737Z,4.00
2018-12-09T01:56:46.825Z,4.63
2018-12-09T01:59:14.901Z,4.03
2018-12-09T02:01:43.058Z,3.87
2018-12-09T02:04:12.196Z,3.97
2018-12-09T02:06:40.240Z,4.50
2018-12-09T02:09:08.479Z,4.00
2018-12-09T02:11:36.715Z,4.10
2018-12-09T02:14:04.857Z,4.30
2018-12-09T02:16:33.318Z,4.00
2018-12-09T02:19:15.775Z,3.87
2018-12-09T02:21:44.218Z,4.27
2018-12-09T02:24:12.709Z,3.53
2018-12-09T02:26:41.038Z,3.53
2018-12-09T02:29:09.167Z,3.90
2018-12-09T02:31:37.270Z,4.40
2018-12-09T02:34:05.488Z,5.50
2018-12-09T02:36:34.271Z,4.13
2018-12-09T02:39:02.444Z,4.40
2018-12-09T02:41:30.507Z,4.27
2018-12-09T02:43:58.582Z,6.03
2018-12-09T02:46:26.645Z,4.23
2018-12-09T02:48:54.737Z,4.13
2018-12-09T02:51:22.882Z,4.70
2018-12-09T02:53:51.072Z,5.80
2018-12-09T02:56:19.134Z,5.30
2018-12-09T02:58:47.464Z,4.80
2018-12-09T03:01:15.806Z,5.90
2018-12-09T03:03:43.868Z,5.70
2018-12-09T03:06:11.918Z,4.83
2018-12-09T03:08:39.986Z,5.67
2018-12-09T03:11:08.332Z,5.27
2018-12-09T03:13:36.483Z,4.90
2018-12-09T03:16:04.715Z,4.90
2018-12-09T03:18:32.781Z,4.67
2018-12-09T03:21:00.842Z,4.20
2018-12-09T03:23:28.998Z,4.63
2018-12-09T03:25:57.158Z,4.07
2018-12-09T03:28:25.221Z,3.77
2018-12-09T03:30:53.383Z,4.37
2018-12-09T03:33:21.514Z,3.67
2018-12-09T03:35:49.674Z,5.07
2018-12-09T03:38:17.827Z,5.33
2018-12-09T03:40:46.063Z,4.67
2018-12-09T03:43:14.121Z,4.20
2018-12-09T03:45:43.503Z,4.00
2018-12-09T03:48:11.955Z,3.43
2018-12-09T03:50:40.035Z,4.03
2018-12-09T03:53:08.096Z,5.00
2018-12-09T03:55:36.246Z,4.53
2018-12-09T03:58:04.411Z,3.83
2018-12-09T04:00:32.526Z,3.70
2018-12-09T04:03:00.608Z,4.00
2018-12-09T04:05:28.685Z,3.60
2018-12-09T04:07:56.745Z,3.93
2018-12-09T04:10:24.879Z,4.07
2018-12-09T04:12:53.022Z,3.43
2018-12-09T04:15:21.175Z,5.40
2018-12-09T04:17:49.249Z,5.10
2018-12-09T04:20:17.315Z,4.10
2018-12-09T04:22:45.374Z,4.20
2018-12-09T04:25:13.552Z,5.40
2018-12-09T04:27:41.653Z,4.13
2018-12-09T04:30:09.792Z,4.27
2018-12-09T04:32:37.883Z,5.13
2018-12-09T04:35:06.122Z,4.50
2018-12-09T04:37:34.183Z,5.30
2018-12-09T04:40:02.276Z,4.70
2018-12-09T04:42:30.386Z,3.87
2018-12-09T04:44:58.851Z,4.93
2018-12-09T04:47:26.945Z,3.53
2018-12-09T04:49:55.017Z,4.37
2018-12-09T04:52:23.109Z,4.50
2018-12-09T04:54:51.183Z,4.20
2018-12-09T04:57:19.422Z,4.70
2018-12-09T04:59:47.962Z,4.23
2018-12-09T05:02:16.140Z,3.97
2018-12-09T05:04:44.373Z,5.30
2018-12-09T05:07:12.548Z,4.80
2018-12-09T05:09:40.605Z,5.83
2018-12-09T05:12:08.712Z,6.37
2018-12-09T05:14:36.781Z,5.40
2018-12-09T05:17:04.869Z,5.80
2018-12-09T05:19:33.130Z,4.50
2018-12-09T05:22:01.191Z,6.20
2018-12-09T05:24:29.355Z,5.30
2018-12-09T05:26:57.487Z,6.47
2018-12-09T05:29:25.582Z,5.00
2018-12-09T05:31:53.708Z,5.00
2018-12-09T05:34:21.799Z,6.43
2018-12-09T05:36:49.953Z,5.00
2018-12-09T05:39:18.098Z,4.97
2018-12-09T05:41:46.187Z,4.60
2018-12-09T05:44:14.232Z,4.57
2018-12-09T05:46:42.407Z,4.00
2018-12-09T05:49:10.566Z,4.20
2018-12-09T05:51:38.638Z,4.10
2018-12-09T05:54:06.726Z,4.40
2018-12-09T05:56:34.764Z,3.53
2018-12-09T05:59:02.858Z,4.43
2018-12-09T06:01:30.920Z,4.00
2018-12-09T06:03:59.020Z,4.03
2018-12-09T06:06:27.074Z,3.70
2018-12-09T06:08:55.155Z,5.00
2018-12-09T06:11:23.302Z,4.67
2018-12-09T06:13:51.445Z,5.30
2018-12-09T06:16:19.506Z,4.93
2018-12-09T06:18:47.638Z,4.70
2018-12-09T06:21:16.108Z,4.30
2018-12-09T06:23:44.193Z,3.50
2018-12-09T06:26:12.271Z,4.47
2018-12-09T06:28:40.346Z,4.50
2018-12-09T06:31:08.484Z,3.80
2018-12-09T06:33:36.939Z,3.43
2018-12-09T06:36:05.011Z,4.20
2018-12-09T06:38:33.076Z,4.70
2018-12-09T06:41:02.045Z,3.87
2018-12-09T06:43:30.117Z,5.20
2018-12-09T06:45:58.614Z,4.23
2018-12-09T06:48:26.630Z,4.60
2018-12-09T06:50:54.703Z,4.53
2018-12-09T06:53:22.791Z,4.50
2018-12-09T06:55:50.891Z,5.33
2018-12-09T06:58:19.450Z,5.50
2018-12-09T07:00:47.524Z,6.17
2018-12-09T07:03:15.606Z,5.17
2018-12-09T07:05:43.702Z,5.73
2018-12-09T07:08:11.774Z,6.30
2018-12-09T07:10:39.949Z,6.53
2018-12-09T07:13:08.050Z,6.87
2018-12-09T07:15:36.090Z,6.97
2018-12-09T07:18:04.223Z,7.63
2018-12-09T07:20:32.272Z,6.80
2018-12-09T07:23:00.379Z,5.30
2018-12-09T07:25:28.477Z,6.23
2018-12-09T07:27:56.527Z,6.60
2018-12-09T07:30:25.268Z,5.80
2018-12-09T07:32:53.339Z,4.90
2018-12-09T07:35:21.407Z,5.07
2018-12-09T07:37:49.523Z,3.97
2018-12-09T07:40:17.596Z,4.37
2018-12-09T07:42:45.643Z,4.30
2018-12-09T07:45:13.722Z,5.37
2018-12-09T07:47:41.814Z,5.10
2018-12-09T07:50:09.889Z,5.20
2018-12-09T07:52:38.055Z,5.07
2018-12-09T07:55:06.198Z,5.53
2018-12-09T07:57:36.403Z,6.50
2018-12-09T08:00:07.242Z,5.93
2018-12-09T08:02:35.331Z,6.47
2018-12-09T08:05:04.258Z,7.60
2018-12-09T08:07:32.324Z,6.63
2018-12-09T08:10:00.419Z,6.90
2018-12-09T08:12:28.481Z,5.93
2018-12-09T08:14:56.544Z,7.40
2018-12-09T08:17:24.630Z,6.90
2018-12-09T08:19:52.698Z,7.77
2018-12-09T08:22:20.786Z,7.43
2018-12-09T08:24:49.763Z,8.30
2018-12-09T08:27:17.837Z,8.37
2018-12-09T08:29:45.886Z,6.63
2018-12-09T08:32:14.563Z,8.63
2018-12-09T08:34:42.638Z,7.83
2018-12-09T08:37:10.711Z,7.80
2018-12-09T08:39:38.781Z,8.43
2018-12-09T08:42:06.875Z,7.03
2018-12-09T08:44:34.942Z,9.03
2018-12-09T08:47:03.088Z,7.00
2018-12-09T08:49:31.141Z,8.40
2018-12-09T08:51:59.201Z,8.27
2018-12-09T08:54:27.278Z,7.03
2018-12-09T08:56:55.355Z,8.47
2018-12-09T08:59:23.450Z,6.07
2018-12-09T09:01:51.516Z,1.80
2018-12-09T09:04:19.613Z,1.30
2018-12-09T09:06:47.701Z,1.10
2018-12-09T09:09:15.773Z,0.90
2018-12-09T09:11:43.842Z,1.30
2018-12-09T09:14:11.921Z,0.83
2018-12-09T09:16:40.015Z,1.00
2018-12-09T09:19:08.110Z,1.07
2018-12-09T09:21:36.217Z,0.80
2018-12-09T09:24:04.297Z,1.40
2018-12-09T09:26:32.648Z,1.30
2018-12-09T09:29:00.703Z,1.40
2018-12-09T09:31:28.779Z,2.07
2018-12-09T09:33:56.861Z,2.10
2018-12-09T09:36:24.990Z,1.97
2018-12-09T09:38:53.085Z,1.87
2018-12-09T09:41:21.153Z,1.57
2018-12-09T09:43:49.244Z,1.67
2018-12-09T09:46:17.322Z,1.53
2018-12-09T09:48:45.413Z,1.33
2018-12-09T09:51:13.469Z,1.40
2018-12-09T09:53:41.547Z,1.80
2018-12-09T09:56:09.614Z,2.20
2018-12-09T09:58:37.729Z,1.40
2018-12-09T10:01:05.859Z,1.77
2018-12-09T10:03:33.934Z,1.37
2018-12-09T10:06:02.226Z,1.20
2018-12-09T10:08:30.301Z,1.67
2018-12-09T10:10:58.361Z,1.60
2018-12-09T10:13:26.820Z,0.90
2018-12-09T10:15:54.883Z,1.10
2018-12-09T10:18:22.969Z,1.57
2018-12-09T10:20:51.082Z,1.07
2018-12-09T10:23:19.207Z,1.27
2018-12-09T10:25:47.299Z,1.40
2018-12-09T10:28:15.407Z,1.20
2018-12-09T10:30:43.544Z,1.53
2018-12-09T10:33:11.631Z,1.20
2018-12-09T10:35:39.730Z,1.27
2018-12-09T10:38:07.859Z,1.40
2018-12-09T10:40:35.993Z,1.47
2018-12-09T10:43:04.073Z,1.50
2018-12-09T10:45:32.162Z,1.43
2018-12-09T10:48:00.268Z,2.10
2018-12-09T10:50:28.375Z,1.40
2018-12-09T10:52:56.474Z,1.77
2018-12-09T10:55:24.572Z,1.10
2018-12-09T10:57:52.662Z,3.33
2018-12-09T11:03:28.674Z,1.10
2018-12-09T11:05:56.778Z,1.10
2018-12-09T11:08:24.870Z,1.40
2018-12-09T11:10:52.945Z,1.30
2018-12-09T11:13:21.064Z,1.30
2018-12-09T11:15:49.141Z,1.47
2018-12-09T11:18:17.198Z,1.50
2018-12-09T11:20:45.281Z,1.50
2018-12-09T11:23:13.377Z,1.60
2018-12-09T11:25:41.439Z,1.90
2018-12-09T11:28:09.528Z,1.37
2018-12-09T11:30:37.686Z,2.10
2018-12-09T11:33:05.797Z,1.70
2018-12-09T11:35:33.944Z,1.60
2018-12-09T11:38:02.078Z,1.60
2018-12-09T11:40:30.179Z,1.40
2018-12-09T11:42:58.253Z,1.33
2018-12-09T11:45:26.366Z,1.60
2018-12-09T11:47:54.467Z,1.60
2018-12-09T11:50:22.558Z,1.40
2018-12-09T11:52:50.688Z,1.43
2018-12-09T11:55:18.764Z,1.77
2018-12-09T11:57:46.875Z,2.03
2018-12-09T12:00:14.992Z,2.50
2018-12-09T12:02:43.059Z,1.97
2018-12-09T12:05:11.242Z,2.13
2018-12-09T12:07:39.315Z,2.07
2018-12-09T12:10:07.431Z,1.90
2018-12-09T12:12:35.538Z,2.00
2018-12-09T12:15:04.599Z,2.60
2018-12-09T12:17:32.711Z,2.40
2018-12-09T12:20:00.799Z,2.00
2018-12-09T12:22:28.915Z,2.00
2018-12-09T12:24:56.971Z,2.30
2018-12-09T12:27:25.128Z,2.37
2018-12-09T12:29:53.476Z,2.63
2018-12-09T12:32:21.533Z,2.43
2018-12-09T12:34:49.769Z,3.47
2018-12-09T12:37:17.874Z,3.60
2018-12-09T12:39:45.940Z,3.00
2018-12-09T12:42:14.035Z,3.17
2018-12-09T12:44:42.108Z,3.60
2018-12-09T12:47:10.178Z,3.40
2018-12-09T12:49:38.374Z,3.00
2018-12-09T12:52:06.558Z,3.43
2018-12-09T12:54:35.506Z,3.50
2018-12-09T12:57:03.675Z,3.23
2018-12-09T12:59:31.846Z,3.57
2018-12-09T13:02:00.050Z,3.00
2018-12-09T13:04:28.133Z,3.13
2018-12-09T13:06:56.203Z,3.30
2018-12-09T13:09:24.267Z,3.50
2018-12-09T13:11:52.345Z,3.27
2018-12-09T13:14:20.427Z,3.50
2018-12-09T13:16:48.509Z,4.47
2018-12-09T13:19:16.750Z,3.77
2018-12-09T13:21:44.860Z,4.40
2018-12-09T13:24:12.941Z,4.37
2018-12-09T13:26:41.140Z,4.33
2018-12-09T13:29:09.224Z,4.80
2018-12-09T13:31:37.413Z,5.00
2018-12-09T13:34:05.478Z,5.70
2018-12-09T13:36:33.549Z,5.00
2018-12-09T13:39:01.643Z,5.23
2018-12-09T13:41:29.770Z,4.63
2018-12-09T13:43:57.855Z,5.33
2018-12-09T13:46:25.943Z,5.23
2018-12-09T13:48:54.107Z,6.83
2018-12-09T13:51:22.197Z,5.33
2018-12-09T13:53:50.287Z,4.70
2018-12-09T13:56:18.376Z,6.10
2018-12-09T13:58:46.494Z,5.10
2018-12-09T14:01:14.575Z,5.20
2018-12-09T14:03:42.660Z,5.27
2018-12-09T14:06:10.763Z,4.60
2018-12-09T14:08:38.832Z,4.77
2018-12-09T14:11:06.932Z,4.87
2018-12-09T14:13:35.026Z,4.70
2018-12-09T14:16:03.094Z,5.43
2018-12-09T14:18:31.274Z,4.20
2018-12-09T14:20:59.355Z,3.80
2018-12-09T14:23:27.451Z,4.60
2018-12-09T14:25:55.623Z,3.13
2018-12-09T14:28:23.792Z,3.77
2018-12-09T14:30:51.867Z,3.93
2018-12-09T14:33:19.967Z,3.77
2018-12-09T14:35:48.049Z,4.20
2018-12-09T14:38:16.119Z,3.53
2018-12-09T14:40:44.223Z,3.80
2018-12-09T14:43:12.284Z,4.00
2018-12-09T14:45:48.590Z,3.27
2018-12-09T14:48:10.436Z,4.33
2018-12-09T14:50:38.629Z,3.60
2018-12-09T14:53:06.715Z,3.00
2018-12-09T14:55:34.806Z,3.43
2018-12-09T14:58:02.911Z,3.30
2018-12-09T15:00:30.982Z,3.40
2018-12-09T15:02:59.110Z,3.87
2018-12-09T15:05:27.226Z,3.60
2018-12-09T15:07:55.335Z,3.10
2018-12-09T15:10:23.381Z,3.07
2018-12-09T15:12:51.442Z,3.60
2018-12-09T15:15:19.631Z,3.00
2018-12-09T15:17:47.741Z,4.07
2018-12-09T15:20:15.817Z,3.90
2018-12-09T15:22:43.909Z,4.43
2018-12-09T15:25:11.984Z,3.90
2018-12-09T15:27:40.126Z,4.00
2018-12-09T15:30:08.291Z,3.43
2018-12-09T15:32:36.369Z,3.50
2018-12-09T15:35:05.030Z,3.00
2018-12-09T15:37:33.102Z,3.40
2018-12-09T15:40:01.204Z,3.73
2018-12-09T15:42:29.279Z,3.57
2018-12-09T15:44:57.386Z,3.97
2018-12-09T15:47:25.466Z,2.80
2018-12-09T15:49:53.529Z,3.73
2018-12-09T15:52:21.626Z,3.30
2018-12-09T15:54:49.704Z,3.03
2018-12-09T15:57:17.794Z,2.27
2018-12-09T15:59:45.952Z,3.00
2018-12-09T16:02:14.065Z,2.17
2018-12-09T16:04:42.134Z,3.27
2018-12-09T16:07:10.218Z,3.90
2018-12-09T16:09:38.299Z,2.57
2018-12-09T16:12:06.550Z,3.10
2018-12-09T16:14:35.379Z,2.67
2018-12-09T16:17:03.470Z,3.63
2018-12-09T16:19:31.556Z,4.40
2018-12-09T16:21:59.641Z,2.40
2018-12-09T16:24:27.775Z,2.50
2018-12-09T16:26:55.829Z,2.97
2018-12-09T16:31:58.937Z,2.83
2018-12-09T16:34:27.081Z,4.20
2018-12-09T16:36:55.177Z,3.30
2018-12-09T16:39:23.306Z,3.03
2018-12-09T16:41:51.392Z,3.23
2018-12-09T16:44:19.519Z,2.60
2018-12-09T16:46:47.604Z,2.80
2018-12-09T16:49:15.690Z,2.40
2018-12-09T16:51:43.777Z,2.50
2018-12-09T16:54:11.910Z,3.03
2018-12-09T16:56:39.994Z,2.47
2018-12-09T16:59:08.071Z,2.07
2018-12-09T17:01:36.169Z,2.37
2018-12-09T17:04:04.236Z,2.57
2018-12-09T17:06:32.321Z,2.77
2018-12-09T17:09:00.438Z,2.70
2018-12-09T17:11:28.563Z,2.30
2018-12-09T17:13:56.660Z,2.70
2018-12-09T17:16:24.789Z,2.43
2018-12-09T17:18:53.037Z,3.43
2018-12-09T17:21:21.240Z,4.80
2018-12-09T17:23:49.425Z,2.37
2018-12-09T17:26:17.499Z,2.70
2018-12-09T17:28:45.602Z,2.63
2018-12-09T17:31:13.678Z,3.30
2018-12-09T17:33:41.772Z,2.83
2018-12-09T17:36:09.871Z,3.30
2018-12-09T17:38:37.969Z,3.50
2018-12-09T17:41:06.086Z,2.70
2018-12-09T17:43:34.259Z,2.93
2018-12-09T17:46:02.381Z,2.60
2018-12-09T17:48:30.480Z,2.57
2018-12-09T17:50:58.592Z,2.90
2018-12-09T17:53:26.688Z,2.37
2018-12-09T17:55:54.836Z,2.30
2018-12-09T17:58:22.910Z,2.90
2018-12-09T18:00:51.021Z,2.80
2018-12-09T18:03:19.107Z,2.80
2018-12-09T18:05:47.186Z,3.77
2018-12-09T18:08:15.290Z,3.93
2018-12-09T18:10:43.396Z,4.43
2018-12-09T18:13:11.472Z,6.03
2018-12-09T18:15:39.659Z,3.83
2018-12-09T18:18:07.728Z,4.30
2018-12-09T18:20:35.804Z,4.50
2018-12-09T18:23:03.906Z,4.73
2018-12-09T18:25:31.976Z,4.23
2018-12-09T18:28:00.103Z,4.00
2018-12-09T18:30:28.894Z,3.90
2018-12-09T18:32:57.002Z,4.33
2018-12-09T18:35:25.160Z,3.80
2018-12-09T18:37:53.499Z,4.83
2018-12-09T18:40:21.615Z,3.83
2018-12-09T18:42:50.438Z,3.27
2018-12-09T18:45:18.686Z,4.13
2018-12-09T18:47:46.771Z,4.23
2018-12-09T18:50:14.966Z,4.23
2018-12-09T18:52:43.080Z,3.50
2018-12-09T18:55:11.200Z,3.80
2018-12-09T18:57:39.281Z,3.93
2018-12-09T19:00:07.552Z,4.83
2018-12-09T19:02:35.706Z,4.50
2018-12-09T19:05:05.106Z,4.43
2018-12-09T19:07:33.265Z,4.10
2018-12-09T19:10:02.343Z,4.90
2018-12-09T19:12:30.705Z,4.50
2018-12-09T19:14:58.766Z,4.30
2018-12-09T19:17:26.875Z,4.50
2018-12-09T19:19:54.978Z,6.33
2018-12-09T19:22:23.078Z,5.07
2018-12-09T19:24:51.172Z,3.67
2018-12-09T19:27:19.316Z,4.20
2018-12-09T19:29:47.387Z,3.70
2018-12-09T19:32:16.297Z,4.23
2018-12-09T19:34:44.406Z,3.83
2018-12-09T19:37:12.500Z,3.33
2018-12-09T19:39:40.597Z,3.70
2018-12-09T19:42:08.838Z,3.40
2018-12-09T19:44:36.927Z,3.90
2018-12-09T19:47:05.164Z,5.00
2018-12-09T19:49:33.317Z,4.23
2018-12-09T19:52:01.403Z,3.57
2018-12-09T19:54:29.999Z,3.83
2018-12-09T19:56:58.135Z,3.73
2018-12-09T19:59:26.240Z,3.70
2018-12-09T20:01:54.331Z,4.40
2018-12-09T20:04:22.437Z,4.00
2018-12-09T20:06:50.623Z,3.57
2018-12-09T20:09:18.749Z,3.63
2018-12-09T20:11:46.818Z,4.13
2018-12-09T20:14:14.910Z,3.60
2018-12-09T20:16:43.315Z,3.83
2018-12-09T20:19:11.430Z,3.83
2018-12-09T20:21:39.554Z,4.00
2018-12-09T20:24:07.671Z,3.93
2018-12-09T20:26:35.782Z,4.40
2018-12-09T20:29:03.879Z,3.40
2018-12-09T20:31:31.962Z,4.63
2018-12-09T20:34:00.065Z,3.93
2018-12-09T20:36:28.196Z,4.70
2018-12-09T20:38:56.279Z,4.20
2018-12-09T20:41:24.706Z,4.00
2018-12-09T20:43:52.770Z,4.07
2018-12-09T20:46:20.863Z,4.40
2018-12-09T20:48:48.954Z,4.80
2018-12-09T20:51:17.113Z,3.63
2018-12-09T20:53:45.211Z,3.50
2018-12-09T20:56:13.286Z,4.20
2018-12-09T20:58:41.403Z,4.90
2018-12-09T21:01:09.527Z,4.90
2018-12-09T21:03:37.612Z,4.27
2018-12-09T21:06:05.676Z,3.70
2018-12-09T21:08:33.796Z,4.27
2018-12-09T21:11:01.887Z,3.73
2018-12-09T21:13:29.973Z,3.70
2018-12-09T21:15:58.088Z,4.60
2018-12-09T21:18:26.170Z,4.60
2018-12-09T21:20:54.292Z,4.20
2018-12-09T21:23:22.357Z,4.60
2018-12-09T21:25:50.460Z,4.30
2018-12-09T21:28:18.643Z,3.50
2018-12-09T21:30:46.718Z,3.87
2018-12-09T21:33:15.422Z,4.33
2018-12-09T21:35:43.554Z,6.40
2018-12-09T21:38:11.655Z,4.50
2018-12-09T21:40:39.886Z,4.10
2018-12-09T21:43:07.955Z,4.27
2018-12-09T21:45:36.043Z,4.17
2018-12-09T21:48:04.140Z,4.03
2018-12-09T21:50:32.258Z,4.23
2018-12-09T21:53:00.344Z,3.80
2018-12-09T21:55:28.475Z,5.27
2018-12-09T21:57:56.585Z,3.60
2018-12-09T22:00:24.638Z,3.93
2018-12-09T22:02:52.733Z,4.47
2018-12-09T22:05:20.831Z,5.30
2018-12-09T22:07:48.910Z,4.50
2018-12-09T22:10:17.068Z,5.20
2018-12-09T22:12:45.268Z,3.53
2018-12-09T22:15:13.348Z,6.30
2018-12-09T22:17:41.423Z,4.10
2018-12-09T22:20:09.533Z,3.93
2018-12-09T22:22:37.638Z,4.80
2018-12-09T22:25:05.815Z,3.30
2018-12-09T22:27:33.912Z,4.90
2018-12-09T22:30:02.139Z,4.10
2018-12-09T22:32:30.198Z,4.67
2018-12-09T22:34:58.271Z,4.50
2018-12-09T22:37:26.382Z,3.50
2018-12-09T22:39:54.617Z,4.70
2018-12-09T22:42:22.689Z,3.63
2018-12-09T22:44:50.799Z,5.00
2018-12-09T22:47:18.849Z,4.07
2018-12-09T22:49:46.945Z,3.90
2018-12-09T22:52:15.080Z,3.33
2018-12-09T22:54:43.180Z,3.63
2018-12-09T22:57:11.293Z,4.07
2018-12-09T22:59:39.365Z,3.50
2018-12-09T23:02:13.183Z,4.20
2018-12-09T23:04:41.256Z,3.77
2018-12-09T23:07:15.125Z,3.60
2018-12-09T23:09:43.206Z,3.30
2018-12-09T23:12:11.318Z,3.60
2018-12-09T23:14:39.427Z,2.87
2018-12-09T23:17:07.510Z,3.50
2018-12-09T23:19:35.596Z,3.40
2018-12-09T23:22:03.759Z,4.40
2018-12-09T23:24:31.842Z,3.23
2018-12-09T23:26:59.933Z,3.57
2018-12-09T23:29:28.014Z,4.20
2018-12-09T23:31:56.128Z,4.47
2018-12-09T23:34:24.194Z,3.20
2018-12-09T23:36:52.290Z,3.30
2018-12-09T23:39:20.448Z,2.83
2018-12-09T23:41:48.538Z,3.03
2018-12-09T23:44:16.698Z,3.87
2018-12-09T23:46:44.834Z,3.63
2018-12-09T23:49:12.936Z,3.43
2018-12-09T23:51:41.024Z,3.13
2018-12-09T23:54:09.096Z,3.87
2018-12-09T23:56:37.186Z,3.40
2018-12-09T23:59:05.294Z,3.73
